• Join FlightAware (Why Join?)
  • Login
  • US Flag 
09:12PM EDT


 

Airport Tracker/Info


-or-


 

Live Flight TrackerFlight Track Log ✈ WIG1064 ✈ 25-Jul-2013 ✈ KMHT - KBTV

Flight Track Log - Related Links

Times and Time Zones

All times are in EDT time to prevent confusion due to time zone crossing. See the WIG1064 flight status page for this flight to view local times or setup timezone preferences in your user account.

Time Position Orientation Groundspeed Altitude Reporting Facility
EDT Latitude Longitude Course Direction KTS MPH feet Rate Location/Type
07:13AM 42.9500 -71.4333 270° West 106 122 1,300  Level KA90
07:14AM 42.9500 -71.4500 270° West 141 162 2,200 1,920 Climbing KA90
07:15AM 42.9833 -71.4833 324° Northwest 132 152 4,200 1,680 Climbing KA90
07:16AM 43.0242 -71.5539 308° West 158 182 6,600 1,380 Climbing Boston Center
07:17AM 43.0539 -71.5961 314° West 163 188 7,900 660 Climbing Boston Center
07:18AM 43.1019 -71.6467 322° Northwest 183 211 8,000  Climbing Boston Center
07:19AM 43.1419 -71.6947 319° Northwest 204 235 8,000  Level Boston Center
07:20AM 43.1922 -71.7508 321° Northwest 210 242 8,000  Level Boston Center
07:21AM 43.2342 -71.7961 322° Northwest 210 242 8,000  Level Boston Center
07:22AM 43.2825 -71.8583 317° Northwest 215 247 8,000  Level Boston Center
07:23AM 43.3244 -71.9122 317° Northwest 210 242 8,100  Climbing Boston Center
07:24AM 43.3686 -71.9661 318° Northwest 210 242 8,000  Descending Boston Center
07:25AM 43.4125 -72.0169 320° Northwest 210 242 8,100  Climbing Boston Center
07:26AM 43.4586 -72.0683 321° Northwest 210 242 8,100  Level Boston Center
07:27AM 43.5044 -72.1194 321° Northwest 210 242 8,100  Level Boston Center
07:28AM 43.5525 -72.1708 322° Northwest 210 242 8,200  Climbing Boston Center
07:29AM 43.5986 -72.2222 321° Northwest 210 242 8,100 -60 Descending Boston Center
07:30AM 43.6422 -72.2794 316° Northwest 210 242 8,100  Level Boston Center
07:31AM 43.6861 -72.3397 315° West 215 247 8,100  Level Boston Center
07:32AM 43.7319 -72.3997 317° Northwest 215 247 8,100  Level Boston Center
07:33AM 43.7781 -72.4486 323° Northwest 215 247 8,200  Climbing Boston Center
07:34AM 43.8278 -72.5006 323° Northwest 215 247 8,100 -60 Descending Boston Center
07:35AM 43.8758 -72.5553 321° Northwest 215 247 8,100  Level Boston Center
07:36AM 43.9236 -72.6072 322° Northwest 215 247 8,100 -60 Level Boston Center
07:37AM 43.9672 -72.6622 318° Northwest 220 253 8,000 -240 Descending Boston Center
07:38AM 44.0150 -72.7200 319° Northwest 220 253 7,700 -420 Descending Boston Center
07:39AM 44.0775 -72.7694 330° Northwest 226 260 7,200 -360 Descending Boston Center
07:40AM 44.1294 -72.8103 331° Northwest 226 260 7,000 -60 Descending Boston Center
07:41AM 44.1836 -72.8483 333° Northwest 219 252 7,100  Climbing Boston Center
07:42AM 44.2397 -72.8806 338° Northwest 219 252 7,100  Level Boston Center
07:43AM 44.3061 -72.9158 339° North 214 246 7,100 -120 Level Boston Center
07:44AM 44.3644 -72.9425 342° North 214 246 6,900 -1,020 Descending Boston Center
07:45AM 44.3869 -72.9978 300° West 188 216 5,100 -1,740 Descending Boston Center
07:46AM 44.4056 -73.0444 299° West 152 175 3,500 -1,500 Descending Boston Center
07:47AM 44.4283 -73.0856 308° West 132 152 2,100 -1,260 Descending Boston Center
07:48AM 44.4511 -73.1206 312° West 119 137 1,000 -900 Descending Boston Center
07:49AM 44.4675 -73.1497 308° West 114 131 400 -300 Descending Boston Center
07:50AM 44.4656 -73.1469 134° Southeast 38 44 400  Level Boston Center
07:51AM 44.4694 -73.1586 295° West 14 16 400  Level Boston Center
07:53AM 44.4719 -73.1533 114° Southeast  Level Estimated
08:00AM 44.4667 -73.1500 316° Northwest  Level FlightAware Approximate